sensor_id;sensor_type;location;lat;lon;timestamp;temperature;humidity
35497;DHT22;21609;49.298;6.844;2023-04-30T00:01:49;17.60;55.30
35497;DHT22;21609;49.298;6.844;2023-04-30T00:04:14;17.60;55.30
35497;DHT22;21609;49.298;6.844;2023-04-30T00:06:40;17.60;55.30
35497;DHT22;21609;49.298;6.844;2023-04-30T00:09:06;17.60;55.30
35497;DHT22;21609;49.298;6.844;2023-04-30T00:11:31;17.60;55.30
35497;DHT22;21609;49.298;6.844;2023-04-30T00:13:57;17.60;55.30
35497;DHT22;21609;49.298;6.844;2023-04-30T00:16:22;17.60;55.30
35497;DHT22;21609;49.298;6.844;2023-04-30T00:18:48;17.60;55.30
35497;DHT22;21609;49.298;6.844;2023-04-30T00:21:13;17.60;55.30
35497;DHT22;21609;49.298;6.844;2023-04-30T00:23:39;17.60;55.30
35497;DHT22;21609;49.298;6.844;2023-04-30T00:26:04;17.60;55.30
35497;DHT22;21609;49.298;6.844;2023-04-30T00:28:30;17.60;55.30
35497;DHT22;21609;49.298;6.844;2023-04-30T00:30:56;17.60;55.30
35497;DHT22;21609;49.298;6.844;2023-04-30T00:33:21;17.60;55.30
35497;DHT22;21609;49.298;6.844;2023-04-30T00:35:47;17.60;55.30
35497;DHT22;21609;49.298;6.844;2023-04-30T00:38:12;17.60;55.30
35497;DHT22;21609;49.298;6.844;2023-04-30T00:40:39;17.60;55.30
35497;DHT22;21609;49.298;6.844;2023-04-30T00:43:05;17.60;55.30
35497;DHT22;21609;49.298;6.844;2023-04-30T00:45:31;17.60;55.30
35497;DHT22;21609;49.298;6.844;2023-04-30T00:47:56;17.60;55.30
35497;DHT22;21609;49.298;6.844;2023-04-30T00:50:22;17.50;55.30
35497;DHT22;21609;49.298;6.844;2023-04-30T00:52:49;17.60;55.30
35497;DHT22;21609;49.298;6.844;2023-04-30T00:55:15;17.60;55.30
35497;DHT22;21609;49.298;6.844;2023-04-30T00:57:41;17.60;55.30
35497;DHT22;21609;49.298;6.844;2023-04-30T01:00:07;17.50;55.20
35497;DHT22;21609;49.298;6.844;2023-04-30T01:02:35;17.50;55.20
35497;DHT22;21609;49.298;6.844;2023-04-30T01:05:02;17.60;55.30
35497;DHT22;21609;49.298;6.844;2023-04-30T01:07:28;17.60;55.30
35497;DHT22;21609;49.298;6.844;2023-04-30T01:09:54;17.60;55.30
35497;DHT22;21609;49.298;6.844;2023-04-30T01:15:09;17.60;55.30
35497;DHT22;21609;49.298;6.844;2023-04-30T01:18:12;17.50;55.20
35497;DHT22;21609;49.298;6.844;2023-04-30T01:20:48;17.50;55.20
35497;DHT22;21609;49.298;6.844;2023-04-30T01:29:02;17.50;55.20
35497;DHT22;21609;49.298;6.844;2023-04-30T01:31:28;17.50;55.30
35497;DHT22;21609;49.298;6.844;2023-04-30T01:33:54;17.50;55.30
35497;DHT22;21609;49.298;6.844;2023-04-30T01:45:48;17.50;55.30
35497;DHT22;21609;49.298;6.844;2023-04-30T01:48:45;17.50;55.20
35497;DHT22;21609;49.298;6.844;2023-04-30T01:51:19;17.50;55.20
35497;DHT22;21609;49.298;6.844;2023-04-30T01:53:48;17.50;55.20
35497;DHT22;21609;49.298;6.844;2023-04-30T01:56:45;17.50;55.30
35497;DHT22;21609;49.298;6.844;2023-04-30T01:59:13;17.50;55.20
35497;DHT22;21609;49.298;6.844;2023-04-30T02:01:40;17.40;55.90
35497;DHT22;21609;49.298;6.844;2023-04-30T02:04:05;17.50;55.30
35497;DHT22;21609;49.298;6.844;2023-04-30T02:06:31;17.50;55.30
35497;DHT22;21609;49.298;6.844;2023-04-30T02:08:57;17.50;55.30
35497;DHT22;21609;49.298;6.844;2023-04-30T02:11:30;17.50;55.30
35497;DHT22;21609;49.298;6.844;2023-04-30T02:13:56;17.50;55.30
35497;DHT22;21609;49.298;6.844;2023-04-30T02:16:22;17.50;55.30
35497;DHT22;21609;49.298;6.844;2023-04-30T02:18:48;17.50;55.80
35497;DHT22;21609;49.298;6.844;2023-04-30T02:21:13;17.50;55.30
35497;DHT22;21609;49.298;6.844;2023-04-30T02:23:39;17.50;55.30
35497;DHT22;21609;49.298;6.844;2023-04-30T02:26:05;17.50;55.30
35497;DHT22;21609;49.298;6.844;2023-04-30T02:28:30;17.40;55.20
35497;DHT22;21609;49.298;6.844;2023-04-30T02:30:56;17.50;55.30
35497;DHT22;21609;49.298;6.844;2023-04-30T02:33:22;17.50;55.20
35497;DHT22;21609;49.298;6.844;2023-04-30T02:35:47;17.40;55.20
35497;DHT22;21609;49.298;6.844;2023-04-30T02:38:13;17.40;55.20
35497;DHT22;21609;49.298;6.844;2023-04-30T02:40:40;17.40;55.30
35497;DHT22;21609;49.298;6.844;2023-04-30T02:43:05;17.40;55.30
35497;DHT22;21609;49.298;6.844;2023-04-30T02:45:31;17.40;55.20
35497;DHT22;21609;49.298;6.844;2023-04-30T02:47:57;17.40;55.20
35497;DHT22;21609;49.298;6.844;2023-04-30T02:50:22;17.40;55.30
35497;DHT22;21609;49.298;6.844;2023-04-30T02:52:48;17.40;55.20
35497;DHT22;21609;49.298;6.844;2023-04-30T02:55:13;17.40;55.30
35497;DHT22;21609;49.298;6.844;2023-04-30T02:57:39;17.40;55.30
35497;DHT22;21609;49.298;6.844;2023-04-30T03:00:05;17.40;55.20
35497;DHT22;21609;49.298;6.844;2023-04-30T03:02:31;17.40;55.20
35497;DHT22;21609;49.298;6.844;2023-04-30T03:04:57;17.40;55.30
35497;DHT22;21609;49.298;6.844;2023-04-30T03:07:22;17.40;55.30
35497;DHT22;21609;49.298;6.844;2023-04-30T03:09:48;17.40;55.30
35497;DHT22;21609;49.298;6.844;2023-04-30T03:12:13;17.40;55.20
35497;DHT22;21609;49.298;6.844;2023-04-30T03:14:39;17.40;55.20
35497;DHT22;21609;49.298;6.844;2023-04-30T03:17:05;17.40;55.20
35497;DHT22;21609;49.298;6.844;2023-04-30T03:19:31;17.40;55.30
35497;DHT22;21609;49.298;6.844;2023-04-30T03:21:57;17.40;55.20
35497;DHT22;21609;49.298;6.844;2023-04-30T03:24:22;17.40;55.20
35497;DHT22;21609;49.298;6.844;2023-04-30T03:26:49;17.40;55.20
35497;DHT22;21609;49.298;6.844;2023-04-30T03:29:15;17.40;55.30
35497;DHT22;21609;49.298;6.844;2023-04-30T03:31:41;17.40;55.30
35497;DHT22;21609;49.298;6.844;2023-04-30T03:34:06;17.40;55.20
35497;DHT22;21609;49.298;6.844;2023-04-30T03:36:32;17.40;55.30
35497;DHT22;21609;49.298;6.844;2023-04-30T03:38:59;17.40;55.20
35497;DHT22;21609;49.298;6.844;2023-04-30T03:41:25;17.40;55.20
35497;DHT22;21609;49.298;6.844;2023-04-30T03:43:50;17.40;55.20
35497;DHT22;21609;49.298;6.844;2023-04-30T03:46:16;17.30;55.20
35497;DHT22;21609;49.298;6.844;2023-04-30T03:48:41;17.30;55.20
35497;DHT22;21609;49.298;6.844;2023-04-30T03:51:07;17.30;55.20
35497;DHT22;21609;49.298;6.844;2023-04-30T03:53:33;17.40;55.20
35497;DHT22;21609;49.298;6.844;2023-04-30T03:55:59;17.30;55.20
35497;DHT22;21609;49.298;6.844;2023-04-30T03:58:25;17.30;55.20
35497;DHT22;21609;49.298;6.844;2023-04-30T04:00:50;17.30;55.20
35497;DHT22;21609;49.298;6.844;2023-04-30T04:03:16;17.30;55.20
35497;DHT22;21609;49.298;6.844;2023-04-30T04:05:42;17.30;55.20
35497;DHT22;21609;49.298;6.844;2023-04-30T04:08:08;17.30;55.20
35497;DHT22;21609;49.298;6.844;2023-04-30T04:10:34;17.30;55.20
35497;DHT22;21609;49.298;6.844;2023-04-30T04:12:59;17.30;55.20
35497;DHT22;21609;49.298;6.844;2023-04-30T04:15:25;17.30;55.20
35497;DHT22;21609;49.298;6.844;2023-04-30T04:17:50;17.30;55.30
35497;DHT22;21609;49.298;6.844;2023-04-30T04:20:16;17.30;55.20
35497;DHT22;21609;49.298;6.844;2023-04-30T04:22:42;17.30;55.30
35497;DHT22;21609;49.298;6.844;2023-04-30T04:25:09;17.30;55.20
35497;DHT22;21609;49.298;6.844;2023-04-30T04:27:35;17.30;55.20
35497;DHT22;21609;49.298;6.844;2023-04-30T04:30:03;17.30;55.20
35497;DHT22;21609;49.298;6.844;2023-04-30T04:32:29;17.30;55.20
35497;DHT22;21609;49.298;6.844;2023-04-30T04:34:57;17.30;55.20
35497;DHT22;21609;49.298;6.844;2023-04-30T04:37:23;17.30;55.20
35497;DHT22;21609;49.298;6.844;2023-04-30T04:39:48;17.30;55.20
35497;DHT22;21609;49.298;6.844;2023-04-30T04:42:15;17.30;55.20
35497;DHT22;21609;49.298;6.844;2023-04-30T04:44:43;17.30;55.20
35497;DHT22;21609;49.298;6.844;2023-04-30T04:47:09;17.30;55.20
35497;DHT22;21609;49.298;6.844;2023-04-30T04:49:36;17.30;55.30
35497;DHT22;21609;49.298;6.844;2023-04-30T04:52:02;17.30;55.20
35497;DHT22;21609;49.298;6.844;2023-04-30T04:54:28;17.20;55.20
35497;DHT22;21609;49.298;6.844;2023-04-30T04:56:53;17.30;55.30
35497;DHT22;21609;49.298;6.844;2023-04-30T04:59:20;17.30;55.30
35497;DHT22;21609;49.298;6.844;2023-04-30T05:01:45;17.30;55.30
35497;DHT22;21609;49.298;6.844;2023-04-30T05:04:11;17.30;55.30
35497;DHT22;21609;49.298;6.844;2023-04-30T05:06:38;17.20;55.20
35497;DHT22;21609;49.298;6.844;2023-04-30T05:09:04;17.30;55.30
35497;DHT22;21609;49.298;6.844;2023-04-30T05:11:33;17.30;55.30
35497;DHT22;21609;49.298;6.844;2023-04-30T05:13:58;17.20;55.20
35497;DHT22;21609;49.298;6.844;2023-04-30T05:16:24;17.30;55.30
35497;DHT22;21609;49.298;6.844;2023-04-30T05:18:50;17.20;55.20
35497;DHT22;21609;49.298;6.844;2023-04-30T05:21:16;17.30;55.30
35497;DHT22;21609;49.298;6.844;2023-04-30T05:23:43;17.30;55.50
35497;DHT22;21609;49.298;6.844;2023-04-30T05:26:09;17.30;55.50
35497;DHT22;21609;49.298;6.844;2023-04-30T05:28:34;17.30;55.60
35497;DHT22;21609;49.298;6.844;2023-04-30T05:31:00;17.30;55.40
35497;DHT22;21609;49.298;6.844;2023-04-30T05:33:26;17.30;55.50
35497;DHT22;21609;49.298;6.844;2023-04-30T05:35:51;17.30;55.60
35497;DHT22;21609;49.298;6.844;2023-04-30T05:38:17;17.30;55.50
35497;DHT22;21609;49.298;6.844;2023-04-30T05:40:42;17.30;55.50
35497;DHT22;21609;49.298;6.844;2023-04-30T05:43:08;17.30;55.40
35497;DHT22;21609;49.298;6.844;2023-04-30T05:45:33;17.30;55.40
35497;DHT22;21609;49.298;6.844;2023-04-30T05:47:59;17.30;55.40
35497;DHT22;21609;49.298;6.844;2023-04-30T05:50:26;17.30;55.30
35497;DHT22;21609;49.298;6.844;2023-04-30T05:52:51;17.30;55.50
35497;DHT22;21609;49.298;6.844;2023-04-30T05:55:17;17.30;55.50
35497;DHT22;21609;49.298;6.844;2023-04-30T05:57:42;17.30;55.60
35497;DHT22;21609;49.298;6.844;2023-04-30T06:00:08;17.30;55.70
35497;DHT22;21609;49.298;6.844;2023-04-30T06:02:34;17.30;56.50
35497;DHT22;21609;49.298;6.844;2023-04-30T06:05:00;17.30;55.70
35497;DHT22;21609;49.298;6.844;2023-04-30T06:07:27;17.30;55.70
35497;DHT22;21609;49.298;6.844;2023-04-30T06:09:52;17.40;56.00
35497;DHT22;21609;49.298;6.844;2023-04-30T06:12:18;17.40;56.00
35497;DHT22;21609;49.298;6.844;2023-04-30T06:14:44;17.40;55.80
35497;DHT22;21609;49.298;6.844;2023-04-30T06:17:11;17.40;55.80
35497;DHT22;21609;49.298;6.844;2023-04-30T06:19:36;17.40;55.70
35497;DHT22;21609;49.298;6.844;2023-04-30T06:22:03;17.40;55.80
35497;DHT22;21609;49.298;6.844;2023-04-30T06:24:29;17.40;55.70
35497;DHT22;21609;49.298;6.844;2023-04-30T06:26:55;17.40;55.70
35497;DHT22;21609;49.298;6.844;2023-04-30T06:29:20;17.40;55.70
35497;DHT22;21609;49.298;6.844;2023-04-30T06:31:49;17.40;55.70
35497;DHT22;21609;49.298;6.844;2023-04-30T06:34:15;17.40;55.90
35497;DHT22;21609;49.298;6.844;2023-04-30T06:36:40;17.40;55.70
35497;DHT22;21609;49.298;6.844;2023-04-30T06:39:06;17.50;56.00
35497;DHT22;21609;49.298;6.844;2023-04-30T06:41:32;17.50;55.80
35497;DHT22;21609;49.298;6.844;2023-04-30T06:43:57;17.50;55.70
35497;DHT22;21609;49.298;6.844;2023-04-30T06:46:23;17.60;55.70
35497;DHT22;21609;49.298;6.844;2023-04-30T06:48:48;17.60;55.70
35497;DHT22;21609;49.298;6.844;2023-04-30T06:51:14;17.60;55.60
35497;DHT22;21609;49.298;6.844;2023-04-30T06:53:39;17.70;55.60
35497;DHT22;21609;49.298;6.844;2023-04-30T06:56:05;17.70;55.50
35497;DHT22;21609;49.298;6.844;2023-04-30T06:58:31;17.70;56.00
35497;DHT22;21609;49.298;6.844;2023-04-30T07:00:57;17.70;55.40
35497;DHT22;21609;49.298;6.844;2023-04-30T07:03:22;17.80;55.30
35497;DHT22;21609;49.298;6.844;2023-04-30T07:05:48;17.80;55.30
35497;DHT22;21609;49.298;6.844;2023-04-30T07:08:15;17.80;55.30
35497;DHT22;21609;49.298;6.844;2023-04-30T07:10:41;17.90;55.30
35497;DHT22;21609;49.298;6.844;2023-04-30T07:13:07;17.90;55.30
35497;DHT22;21609;49.298;6.844;2023-04-30T07:15:33;17.90;55.30
35497;DHT22;21609;49.298;6.844;2023-04-30T07:17:59;17.90;55.30
35497;DHT22;21609;49.298;6.844;2023-04-30T07:20:24;17.90;55.30
35497;DHT22;21609;49.298;6.844;2023-04-30T07:22:50;18.00;55.30
35497;DHT22;21609;49.298;6.844;2023-04-30T07:25:15;18.00;55.30
35497;DHT22;21609;49.298;6.844;2023-04-30T07:27:41;18.00;55.30
35497;DHT22;21609;49.298;6.844;2023-04-30T07:30:08;18.00;55.30
35497;DHT22;21609;49.298;6.844;2023-04-30T07:32:35;18.00;55.30
35497;DHT22;21609;49.298;6.844;2023-04-30T07:35:01;18.10;55.30
35497;DHT22;21609;49.298;6.844;2023-04-30T07:37:27;18.10;55.30
35497;DHT22;21609;49.298;6.844;2023-04-30T07:39:52;18.10;55.30
35497;DHT22;21609;49.298;6.844;2023-04-30T07:42:18;18.10;55.30
35497;DHT22;21609;49.298;6.844;2023-04-30T07:44:43;18.20;55.30
35497;DHT22;21609;49.298;6.844;2023-04-30T07:47:09;18.10;55.20
35497;DHT22;21609;49.298;6.844;2023-04-30T07:49:35;18.20;55.20
35497;DHT22;21609;49.298;6.844;2023-04-30T07:52:00;18.20;55.20
35497;DHT22;21609;49.298;6.844;2023-04-30T07:54:26;18.20;55.20
35497;DHT22;21609;49.298;6.844;2023-04-30T07:56:52;18.20;55.30
35497;DHT22;21609;49.298;6.844;2023-04-30T07:59:17;18.30;55.30
35497;DHT22;21609;49.298;6.844;2023-04-30T08:01:43;18.20;55.20
35497;DHT22;21609;49.298;6.844;2023-04-30T08:04:09;18.20;55.20
35497;DHT22;21609;49.298;6.844;2023-04-30T08:06:34;18.30;55.30
35497;DHT22;21609;49.298;6.844;2023-04-30T08:09:00;18.30;55.20
35497;DHT22;21609;49.298;6.844;2023-04-30T08:11:26;18.30;55.10
35497;DHT22;21609;49.298;6.844;2023-04-30T08:13:51;18.30;55.10
35497;DHT22;21609;49.298;6.844;2023-04-30T08:16:17;18.40;55.30
35497;DHT22;21609;49.298;6.844;2023-04-30T08:18:44;18.30;55.00
35497;DHT22;21609;49.298;6.844;2023-04-30T08:21:12;18.40;55.00
35497;DHT22;21609;49.298;6.844;2023-04-30T08:23:37;18.40;55.00
35497;DHT22;21609;49.298;6.844;2023-04-30T08:26:03;18.40;55.00
35497;DHT22;21609;49.298;6.844;2023-04-30T08:28:29;18.40;55.00
35497;DHT22;21609;49.298;6.844;2023-04-30T08:30:55;18.40;55.00
35497;DHT22;21609;49.298;6.844;2023-04-30T08:33:20;18.50;55.50
35497;DHT22;21609;49.298;6.844;2023-04-30T08:35:46;18.50;54.90
35497;DHT22;21609;49.298;6.844;2023-04-30T08:38:11;18.50;54.80
35497;DHT22;21609;49.298;6.844;2023-04-30T08:40:39;18.50;54.80
35497;DHT22;21609;49.298;6.844;2023-04-30T08:43:06;18.50;54.80
35497;DHT22;21609;49.298;6.844;2023-04-30T08:45:33;18.50;54.70
35497;DHT22;21609;49.298;6.844;2023-04-30T08:47:59;18.50;54.70
35497;DHT22;21609;49.298;6.844;2023-04-30T08:50:26;18.50;54.60
35497;DHT22;21609;49.298;6.844;2023-04-30T08:52:52;18.50;55.30
35497;DHT22;21609;49.298;6.844;2023-04-30T08:55:18;18.50;54.60
35497;DHT22;21609;49.298;6.844;2023-04-30T08:57:43;18.50;54.60
35497;DHT22;21609;49.298;6.844;2023-04-30T09:00:09;18.50;54.60
35497;DHT22;21609;49.298;6.844;2023-04-30T09:02:39;18.50;54.60
35497;DHT22;21609;49.298;6.844;2023-04-30T09:05:10;18.50;54.60
35497;DHT22;21609;49.298;6.844;2023-04-30T09:07:41;18.50;54.70
35497;DHT22;21609;49.298;6.844;2023-04-30T09:10:14;18.50;54.70
35497;DHT22;21609;49.298;6.844;2023-04-30T09:12:42;18.50;54.60
35497;DHT22;21609;49.298;6.844;2023-04-30T09:15:10;18.50;54.40
35497;DHT22;21609;49.298;6.844;2023-04-30T09:17:36;18.50;54.40
35497;DHT22;21609;49.298;6.844;2023-04-30T09:20:09;18.50;54.60
35497;DHT22;21609;49.298;6.844;2023-04-30T09:22:37;18.50;54.60
35497;DHT22;21609;49.298;6.844;2023-04-30T09:25:03;18.50;54.60
35497;DHT22;21609;49.298;6.844;2023-04-30T09:27:28;18.50;54.50
35497;DHT22;21609;49.298;6.844;2023-04-30T09:29:54;18.50;54.60
35497;DHT22;21609;49.298;6.844;2023-04-30T09:32:20;18.50;54.60
35497;DHT22;21609;49.298;6.844;2023-04-30T09:34:46;18.50;54.60
35497;DHT22;21609;49.298;6.844;2023-04-30T09:37:11;18.50;54.70
35497;DHT22;21609;49.298;6.844;2023-04-30T09:39:50;18.50;54.90
35497;DHT22;21609;49.298;6.844;2023-04-30T09:42:17;18.40;54.60
35497;DHT22;21609;49.298;6.844;2023-04-30T09:44:43;18.40;54.70
35497;DHT22;21609;49.298;6.844;2023-04-30T09:47:14;18.40;54.60
35497;DHT22;21609;49.298;6.844;2023-04-30T09:49:42;18.40;54.50
35497;DHT22;21609;49.298;6.844;2023-04-30T09:52:08;18.40;54.70
35497;DHT22;21609;49.298;6.844;2023-04-30T09:54:34;18.40;54.80
35497;DHT22;21609;49.298;6.844;2023-04-30T09:57:01;18.40;54.60
35497;DHT22;21609;49.298;6.844;2023-04-30T09:59:29;18.40;54.60
35497;DHT22;21609;49.298;6.844;2023-04-30T10:01:58;18.40;54.50
35497;DHT22;21609;49.298;6.844;2023-04-30T10:04:27;18.40;54.40
35497;DHT22;21609;49.298;6.844;2023-04-30T10:06:54;18.40;54.40
35497;DHT22;21609;49.298;6.844;2023-04-30T10:09:24;18.40;54.50
35497;DHT22;21609;49.298;6.844;2023-04-30T10:11:51;18.40;54.60
35497;DHT22;21609;49.298;6.844;2023-04-30T10:14:18;18.40;54.40
35497;DHT22;21609;49.298;6.844;2023-04-30T10:16:56;18.40;54.60
35497;DHT22;21609;49.298;6.844;2023-04-30T10:19:24;18.40;54.30
35497;DHT22;21609;49.298;6.844;2023-04-30T10:21:50;18.40;54.30
35497;DHT22;21609;49.298;6.844;2023-04-30T10:24:17;18.40;54.30
35497;DHT22;21609;49.298;6.844;2023-04-30T10:26:45;18.50;54.30
35497;DHT22;21609;49.298;6.844;2023-04-30T10:29:12;18.50;54.30
35497;DHT22;21609;49.298;6.844;2023-04-30T10:31:40;18.40;54.30
35497;DHT22;21609;49.298;6.844;2023-04-30T10:36:41;18.40;54.40
35497;DHT22;21609;49.298;6.844;2023-04-30T10:39:09;18.40;54.30
35497;DHT22;21609;49.298;6.844;2023-04-30T10:41:35;18.40;54.30
35497;DHT22;21609;49.298;6.844;2023-04-30T10:44:01;18.40;54.30
35497;DHT22;21609;49.298;6.844;2023-04-30T10:46:27;18.40;54.30
35497;DHT22;21609;49.298;6.844;2023-04-30T10:48:53;18.40;54.30
35497;DHT22;21609;49.298;6.844;2023-04-30T10:51:20;18.40;54.30
35497;DHT22;21609;49.298;6.844;2023-04-30T10:53:49;18.40;54.30
35497;DHT22;21609;49.298;6.844;2023-04-30T10:56:31;18.40;54.20
35497;DHT22;21609;49.298;6.844;2023-04-30T10:59:00;18.50;54.10
35497;DHT22;21609;49.298;6.844;2023-04-30T11:01:27;18.50;54.10
35497;DHT22;21609;49.298;6.844;2023-04-30T11:04:07;18.50;54.20
35497;DHT22;21609;49.298;6.844;2023-04-30T11:06:54;18.50;54.10
35497;DHT22;21609;49.298;6.844;2023-04-30T11:12:11;18.50;54.00
35497;DHT22;21609;49.298;6.844;2023-04-30T11:14:44;18.50;54.10
35497;DHT22;21609;49.298;6.844;2023-04-30T11:17:21;18.60;54.10
35497;DHT22;21609;49.298;6.844;2023-04-30T11:19:52;18.60;54.00
35497;DHT22;21609;49.298;6.844;2023-04-30T11:22:21;18.60;54.10
35497;DHT22;21609;49.298;6.844;2023-04-30T11:24:51;18.60;54.20
35497;DHT22;21609;49.298;6.844;2023-04-30T11:27:24;18.60;54.10
35497;DHT22;21609;49.298;6.844;2023-04-30T11:29:51;18.60;54.10
35497;DHT22;21609;49.298;6.844;2023-04-30T11:32:18;18.60;54.00
35497;DHT22;21609;49.298;6.844;2023-04-30T11:34:44;18.60;54.00
35497;DHT22;21609;49.298;6.844;2023-04-30T11:37:12;18.60;54.00
35497;DHT22;21609;49.298;6.844;2023-04-30T11:39:41;18.70;54.00
35497;DHT22;21609;49.298;6.844;2023-04-30T11:42:07;18.70;54.00
35497;DHT22;21609;49.298;6.844;2023-04-30T11:44:33;18.70;54.00
35497;DHT22;21609;49.298;6.844;2023-04-30T11:47:00;18.70;54.00
35497;DHT22;21609;49.298;6.844;2023-04-30T11:49:25;18.70;54.00
35497;DHT22;21609;49.298;6.844;2023-04-30T11:51:51;18.70;53.90
35497;DHT22;21609;49.298;6.844;2023-04-30T11:54:17;18.70;53.90
35497;DHT22;21609;49.298;6.844;2023-04-30T11:56:47;18.70;53.90
35497;DHT22;21609;49.298;6.844;2023-04-30T11:59:13;18.80;53.90
35497;DHT22;21609;49.298;6.844;2023-04-30T12:01:40;18.80;54.00
35497;DHT22;21609;49.298;6.844;2023-04-30T12:04:06;18.70;54.00
35497;DHT22;21609;49.298;6.844;2023-04-30T12:06:33;18.70;53.90
35497;DHT22;21609;49.298;6.844;2023-04-30T12:09:00;18.70;53.90
35497;DHT22;21609;49.298;6.844;2023-04-30T12:11:32;18.80;54.00
35497;DHT22;21609;49.298;6.844;2023-04-30T12:14:06;18.80;54.00
35497;DHT22;21609;49.298;6.844;2023-04-30T12:16:45;18.80;53.90
35497;DHT22;21609;49.298;6.844;2023-04-30T12:19:14;18.80;53.90
35497;DHT22;21609;49.298;6.844;2023-04-30T12:21:41;18.80;53.90
35497;DHT22;21609;49.298;6.844;2023-04-30T12:24:13;18.80;53.90
35497;DHT22;21609;49.298;6.844;2023-04-30T12:26:40;18.80;53.90
35497;DHT22;21609;49.298;6.844;2023-04-30T12:29:17;18.80;53.90
35497;DHT22;21609;49.298;6.844;2023-04-30T12:31:43;18.80;53.70
35497;DHT22;21609;49.298;6.844;2023-04-30T12:34:11;18.80;53.90
35497;DHT22;21609;49.298;6.844;2023-04-30T12:36:39;18.90;53.80
35497;DHT22;21609;49.298;6.844;2023-04-30T12:39:10;18.90;53.90
35497;DHT22;21609;49.298;6.844;2023-04-30T12:41:42;18.90;53.90
35497;DHT22;21609;49.298;6.844;2023-04-30T12:44:21;18.90;53.80
35497;DHT22;21609;49.298;6.844;2023-04-30T12:46:52;18.90;53.70
35497;DHT22;21609;49.298;6.844;2023-04-30T12:49:32;18.90;53.80
35497;DHT22;21609;49.298;6.844;2023-04-30T12:52:00;19.00;53.70
35497;DHT22;21609;49.298;6.844;2023-04-30T12:54:30;19.00;53.70
35497;DHT22;21609;49.298;6.844;2023-04-30T12:56:57;19.00;53.60
35497;DHT22;21609;49.298;6.844;2023-04-30T12:59:23;19.00;53.50
35497;DHT22;21609;49.298;6.844;2023-04-30T13:01:49;19.00;53.70
35497;DHT22;21609;49.298;6.844;2023-04-30T13:04:14;19.00;53.80
35497;DHT22;21609;49.298;6.844;2023-04-30T13:06:40;19.10;53.70
35497;DHT22;21609;49.298;6.844;2023-04-30T13:09:05;19.10;53.70
35497;DHT22;21609;49.298;6.844;2023-04-30T13:11:31;19.10;53.90
35497;DHT22;21609;49.298;6.844;2023-04-30T13:13:56;19.20;53.70
35497;DHT22;21609;49.298;6.844;2023-04-30T13:16:22;19.20;53.70
35497;DHT22;21609;49.298;6.844;2023-04-30T13:18:48;19.30;53.60
35497;DHT22;21609;49.298;6.844;2023-04-30T13:21:14;19.30;53.70
35497;DHT22;21609;49.298;6.844;2023-04-30T13:23:39;19.30;53.60
35497;DHT22;21609;49.298;6.844;2023-04-30T13:26:05;19.30;53.70
35497;DHT22;21609;49.298;6.844;2023-04-30T13:28:30;19.30;53.60
35497;DHT22;21609;49.298;6.844;2023-04-30T13:30:56;19.40;53.40
35497;DHT22;21609;49.298;6.844;2023-04-30T13:33:22;19.40;53.60
35497;DHT22;21609;49.298;6.844;2023-04-30T13:35:47;19.50;53.70
35497;DHT22;21609;49.298;6.844;2023-04-30T13:38:14;19.50;53.70
35497;DHT22;21609;49.298;6.844;2023-04-30T13:40:39;19.60;53.40
35497;DHT22;21609;49.298;6.844;2023-04-30T13:43:05;19.60;53.30
35497;DHT22;21609;49.298;6.844;2023-04-30T13:45:32;19.60;53.30
35497;DHT22;21609;49.298;6.844;2023-04-30T13:47:57;19.60;53.50
35497;DHT22;21609;49.298;6.844;2023-04-30T13:50:23;19.60;53.40
35497;DHT22;21609;49.298;6.844;2023-04-30T13:52:48;19.60;53.30
35497;DHT22;21609;49.298;6.844;2023-04-30T13:55:14;19.70;53.40
35497;DHT22;21609;49.298;6.844;2023-04-30T13:57:39;19.70;53.30
35497;DHT22;21609;49.298;6.844;2023-04-30T14:00:06;19.60;53.20
35497;DHT22;21609;49.298;6.844;2023-04-30T14:02:32;19.60;53.20
35497;DHT22;21609;49.298;6.844;2023-04-30T14:04:57;19.60;53.30
35497;DHT22;21609;49.298;6.844;2023-04-30T14:07:24;19.70;53.50
35497;DHT22;21609;49.298;6.844;2023-04-30T14:09:50;19.70;53.50
35497;DHT22;21609;49.298;6.844;2023-04-30T14:12:15;19.70;53.30
35497;DHT22;21609;49.298;6.844;2023-04-30T14:14:41;19.70;53.20
35497;DHT22;21609;49.298;6.844;2023-04-30T14:17:07;19.70;53.20
35497;DHT22;21609;49.298;6.844;2023-04-30T14:19:32;19.70;53.20
35497;DHT22;21609;49.298;6.844;2023-04-30T14:21:58;19.70;53.20
35497;DHT22;21609;49.298;6.844;2023-04-30T14:24:24;19.70;53.40
35497;DHT22;21609;49.298;6.844;2023-04-30T14:26:50;19.70;53.30
35497;DHT22;21609;49.298;6.844;2023-04-30T14:29:15;19.70;53.20
35497;DHT22;21609;49.298;6.844;2023-04-30T14:31:42;19.70;53.00
35497;DHT22;21609;49.298;6.844;2023-04-30T14:34:08;19.70;53.00
35497;DHT22;21609;49.298;6.844;2023-04-30T14:36:36;19.70;53.10
35497;DHT22;21609;49.298;6.844;2023-04-30T14:39:02;19.70;53.10
35497;DHT22;21609;49.298;6.844;2023-04-30T14:41:32;19.70;53.20
35497;DHT22;21609;49.298;6.844;2023-04-30T14:43:58;19.70;53.10
35497;DHT22;21609;49.298;6.844;2023-04-30T14:46:24;19.70;53.10
35497;DHT22;21609;49.298;6.844;2023-04-30T14:48:49;19.70;53.00
35497;DHT22;21609;49.298;6.844;2023-04-30T14:51:15;19.70;53.00
35497;DHT22;21609;49.298;6.844;2023-04-30T14:53:40;19.70;53.00
35497;DHT22;21609;49.298;6.844;2023-04-30T14:56:06;19.70;53.00
35497;DHT22;21609;49.298;6.844;2023-04-30T14:58:32;19.60;53.00
35497;DHT22;21609;49.298;6.844;2023-04-30T15:00:57;19.60;53.10
35497;DHT22;21609;49.298;6.844;2023-04-30T15:03:23;19.60;53.00
35497;DHT22;21609;49.298;6.844;2023-04-30T15:05:48;19.60;53.00
35497;DHT22;21609;49.298;6.844;2023-04-30T15:08:16;19.60;53.10
35497;DHT22;21609;49.298;6.844;2023-04-30T15:10:42;19.60;53.00
35497;DHT22;21609;49.298;6.844;2023-04-30T15:13:08;19.60;53.10
35497;DHT22;21609;49.298;6.844;2023-04-30T15:15:34;19.60;53.10
35497;DHT22;21609;49.298;6.844;2023-04-30T15:18:01;19.60;53.10
35497;DHT22;21609;49.298;6.844;2023-04-30T15:20:28;19.70;53.00
35497;DHT22;21609;49.298;6.844;2023-04-30T15:22:53;19.70;53.00
35497;DHT22;21609;49.298;6.844;2023-04-30T15:25:20;19.70;53.00
35497;DHT22;21609;49.298;6.844;2023-04-30T15:27:46;19.70;53.00
35497;DHT22;21609;49.298;6.844;2023-04-30T15:30:12;19.70;52.90
35497;DHT22;21609;49.298;6.844;2023-04-30T15:32:37;19.70;53.50
35497;DHT22;21609;49.298;6.844;2023-04-30T15:35:03;19.70;52.90
35497;DHT22;21609;49.298;6.844;2023-04-30T15:37:29;19.70;52.90
35497;DHT22;21609;49.298;6.844;2023-04-30T15:39:55;19.70;52.80
35497;DHT22;21609;49.298;6.844;2023-04-30T15:42:20;19.60;52.90
35497;DHT22;21609;49.298;6.844;2023-04-30T15:44:46;19.60;52.80
35497;DHT22;21609;49.298;6.844;2023-04-30T15:47:11;19.60;52.90
35497;DHT22;21609;49.298;6.844;2023-04-30T15:49:37;19.60;52.80
35497;DHT22;21609;49.298;6.844;2023-04-30T15:52:03;19.60;52.90